createdAt,value
2024-02-08T06:46:49.460Z,18.17
2024-02-08T07:25:12.891Z,15.23
2024-02-08T07:49:52.751Z,11.47
2024-02-08T08:40:22.386Z,15.53
2024-02-08T08:42:51.728Z,20.67
2024-02-08T08:45:20.930Z,18.37
2024-02-08T08:47:55.647Z,14.57
2024-02-08T08:50:32.615Z,16.90
2024-02-08T08:53:10.103Z,16.80
2024-02-08T08:55:51.514Z,14.87
2024-02-08T08:58:24.415Z,18.30
2024-02-08T09:01:00.797Z,18.13
2024-02-08T09:03:30.270Z,17.13
2024-02-08T09:05:59.266Z,16.27
2024-02-08T09:08:45.960Z,15.67
2024-02-08T09:11:16.057Z,16.50
2024-02-08T09:13:46.445Z,16.43
2024-02-08T09:16:38.705Z,19.97
2024-02-08T09:19:09.016Z,16.07
2024-02-08T09:21:40.544Z,15.37
2024-02-08T09:24:19.354Z,16.67
2024-02-08T09:26:50.766Z,13.53
2024-02-08T09:32:23.741Z,14.60
2024-02-08T09:34:54.842Z,16.57
2024-02-08T09:37:23.634Z,18.27
2024-02-08T10:25:38.425Z,17.37
2024-02-08T10:28:09.048Z,11.33
2024-02-08T10:30:45.684Z,8.00
2024-02-08T10:33:17.974Z,4.60
2024-02-08T10:35:48.923Z,6.00
2024-02-08T10:38:26.690Z,2.07
2024-02-08T10:40:58.275Z,3.47
2024-02-08T10:43:38.708Z,3.20
2024-02-08T10:46:18.155Z,4.27
2024-02-08T10:48:50.978Z,1.67
2024-02-08T10:51:27.786Z,1.93
2024-02-08T10:54:06.995Z,2.73
2024-02-08T10:56:46.756Z,2.70
2024-02-08T10:59:40.638Z,2.63
2024-02-08T11:02:27.129Z,2.00
2024-02-08T11:05:14.423Z,1.80
2024-02-08T11:07:47.471Z,1.27
2024-02-08T11:10:22.787Z,1.80
2024-02-08T11:12:54.743Z,2.10
2024-02-08T11:15:32.995Z,1.40
2024-02-08T11:18:05.511Z,1.37
2024-02-08T11:20:43.987Z,5.00
2024-02-08T11:23:19.961Z,0.90
2024-02-08T11:25:48.334Z,5.37
2024-02-08T11:28:25.830Z,2.10
2024-02-08T11:30:57.358Z,1.20
2024-02-08T11:33:33.344Z,1.40
2024-02-08T11:36:14.104Z,2.13
2024-02-08T11:39:01.027Z,3.50
2024-02-08T11:41:33.849Z,0.70
2024-02-08T11:44:05.554Z,1.27
2024-02-08T11:47:11.210Z,1.83
2024-02-08T11:49:54.568Z,1.73
2024-02-08T11:52:25.620Z,2.17
2024-02-08T11:55:07.879Z,1.40
2024-02-08T11:57:42.392Z,2.43
2024-02-08T12:00:28.922Z,1.40
2024-02-08T12:03:39.798Z,1.90
2024-02-08T12:09:35.140Z,2.37
2024-02-08T12:12:33.593Z,1.93
2024-02-08T12:15:16.238Z,2.50
2024-02-08T12:21:12.974Z,1.47
2024-02-08T12:24:32.918Z,3.70
2024-02-08T12:27:27.244Z,1.30
2024-02-08T12:29:58.754Z,3.03
2024-02-08T12:32:59.797Z,3.00
2024-02-08T12:35:35.872Z,2.67
2024-02-08T12:38:20.162Z,1.60
2024-02-08T12:41:01.046Z,1.50
2024-02-08T12:43:57.272Z,4.33
2024-02-08T12:46:46.014Z,1.20
2024-02-08T12:49:51.675Z,1.77
2024-02-08T12:53:05.947Z,2.20
2024-02-08T12:56:14.961Z,3.77
2024-02-08T12:59:37.067Z,3.13
2024-02-08T13:08:51.501Z,4.20
2024-02-08T13:21:51.232Z,10.87
2024-02-08T13:24:43.166Z,7.43
2024-02-08T13:41:19.859Z,13.90
2024-02-08T13:44:27.138Z,10.87
2024-02-08T14:00:02.322Z,17.43
2024-02-08T14:09:20.635Z,17.93
2024-02-08T14:12:07.677Z,13.80
2024-02-08T14:15:10.710Z,15.73
2024-02-08T14:18:28.722Z,19.60
2024-02-08T14:21:05.192Z,18.13
2024-02-08T14:23:51.850Z,21.33
2024-02-08T14:26:41.058Z,20.10
2024-02-08T14:38:43.701Z,13.67
2024-02-08T14:41:27.502Z,19.50
2024-02-08T14:43:56.624Z,15.37
2024-02-08T14:46:27.838Z,21.70
2024-02-08T14:48:56.205Z,18.73
2024-02-08T14:51:39.133Z,18.67
2024-02-08T14:54:20.361Z,12.53
2024-02-08T14:57:06.653Z,17.77
2024-02-08T14:59:51.980Z,13.90
2024-02-08T15:02:25.140Z,15.93
2024-02-08T15:05:02.691Z,18.20
2024-02-08T15:07:50.177Z,15.30
2024-02-08T15:10:45.045Z,18.07
2024-02-08T15:13:20.889Z,19.83
2024-02-08T15:15:54.666Z,18.20
2024-02-08T15:18:32.451Z,18.53
2024-02-08T15:21:10.613Z,21.13
2024-02-08T15:23:50.477Z,21.00
2024-02-08T15:26:27.479Z,20.00
2024-02-08T15:29:00.885Z,30.00
2024-02-08T15:31:48.542Z,21.73
2024-02-08T15:34:29.291Z,18.53
2024-02-08T15:37:15.558Z,20.57
2024-02-08T15:40:11.513Z,23.43
2024-02-08T15:42:52.755Z,17.87
2024-02-08T15:45:22.727Z,20.83
2024-02-08T15:48:12.235Z,21.80
2024-02-08T15:50:47.452Z,21.00
2024-02-08T15:53:24.656Z,19.97
2024-02-08T15:55:57.378Z,17.50
2024-02-08T15:58:30.762Z,19.83
2024-02-08T16:01:28.777Z,21.93
2024-02-08T16:04:01.738Z,17.83
2024-02-08T16:06:44.712Z,22.70
2024-02-08T16:09:27.082Z,18.17
2024-02-08T16:12:01.733Z,21.30
2024-02-08T16:20:59.214Z,25.73
2024-02-08T16:26:40.112Z,21.47
2024-02-08T16:29:10.264Z,17.63
2024-02-08T16:34:36.825Z,17.07
2024-02-08T16:40:31.245Z,16.17
2024-02-08T16:43:12.249Z,24.70
2024-02-08T16:45:49.940Z,15.27
2024-02-08T16:48:36.984Z,22.33
2024-02-08T16:51:39.506Z,15.97
2024-02-08T17:07:48.827Z,22.90
2024-02-08T17:10:35.885Z,13.97
2024-02-08T17:13:46.537Z,16.63
2024-02-08T17:16:43.797Z,17.37
2024-02-08T17:22:58.909Z,22.77
2024-02-08T17:58:59.842Z,12.90
2024-02-08T18:08:03.474Z,22.10
2024-02-08T18:10:54.026Z,20.47
2024-02-08T18:23:31.174Z,15.73
2024-02-08T18:26:05.148Z,19.37
2024-02-08T18:31:36.089Z,20.30
2024-02-08T18:34:25.802Z,23.00
2024-02-08T18:42:59.941Z,23.97
2024-02-08T18:51:40.940Z,21.70
2024-02-08T18:54:12.928Z,22.33
2024-02-08T18:56:43.056Z,29.60
2024-02-08T18:59:15.760Z,26.57
2024-02-08T19:01:54.092Z,25.20
2024-02-08T19:04:26.819Z,29.17
2024-02-08T19:06:56.441Z,23.13
2024-02-08T19:09:30.917Z,29.37
2024-02-08T19:12:13.970Z,29.87
2024-02-08T19:14:51.239Z,25.10
2024-02-08T19:17:26.978Z,25.83
